createdAt,value
2022-12-18T00:01:29.279Z,102044.88
2022-12-18T00:03:32.256Z,102041.41
2022-12-18T00:05:35.441Z,102048.28
2022-12-18T00:07:38.876Z,102047.09
2022-12-18T00:09:41.635Z,102050.72
2022-12-18T00:11:45.896Z,102042.03
2022-12-18T00:13:49.719Z,102044.88
2022-12-18T00:15:52.559Z,102043.38
2022-12-18T00:17:59.385Z,102040.09
2022-12-18T00:20:02.274Z,102049.22
2022-12-18T00:22:05.968Z,102045.19
2022-12-18T00:24:09.084Z,102044.09
2022-12-18T00:26:14.466Z,102041.19
2022-12-18T00:28:18.598Z,102039.28
2022-12-18T00:30:22.654Z,102052.31
2022-12-18T00:32:25.519Z,102052.75
2022-12-18T00:34:28.384Z,102041.88
2022-12-18T00:36:32.902Z,102037.78
2022-12-18T00:38:36.151Z,102046.09
2022-12-18T00:40:39.025Z,102057.19
2022-12-18T00:42:59.394Z,102055.53
2022-12-18T00:45:09.073Z,102059.25
2022-12-18T00:47:15.121Z,102059.50
2022-12-18T00:49:22.185Z,102061.53
2022-12-18T00:51:25.433Z,102063.03
2022-12-18T00:53:28.203Z,102058.28
2022-12-18T00:55:32.569Z,102058.94
2022-12-18T00:57:35.471Z,102059.19
2022-12-18T00:59:38.400Z,102064.34
2022-12-18T01:01:42.743Z,102071.44
2022-12-18T01:03:46.092Z,102058.88
2022-12-18T01:05:48.906Z,102051.84
2022-12-18T01:07:51.726Z,102049.25
2022-12-18T01:09:55.925Z,102049.97
2022-12-18T01:11:58.692Z,102055.22
2022-12-18T01:14:02.106Z,102051.63
2022-12-18T01:16:06.785Z,102053.00
2022-12-18T01:18:12.709Z,102047.69
2022-12-18T01:20:15.957Z,102047.63
2022-12-18T01:22:18.829Z,102046.44
2022-12-18T01:24:21.763Z,102050.84
2022-12-18T01:26:26.865Z,102053.44
2022-12-18T01:28:29.635Z,102051.69
2022-12-18T01:30:32.410Z,102055.53
2022-12-18T01:32:35.492Z,102064.47
2022-12-18T01:34:40.356Z,102067.78
2022-12-18T01:36:43.139Z,102071.97
2022-12-18T01:38:46.378Z,102066.22
2022-12-18T01:40:49.152Z,102054.13
2022-12-18T01:42:53.150Z,102054.28
2022-12-18T01:44:59.756Z,102047.75
2022-12-18T01:47:02.679Z,102046.09
2022-12-18T01:49:05.579Z,102059.53
2022-12-18T01:51:11.916Z,102054.38
2022-12-18T01:53:17.735Z,102058.16
2022-12-18T01:55:23.635Z,102053.00
2022-12-18T01:57:27.407Z,102065.50
2022-12-18T01:59:33.772Z,102063.88
2022-12-18T02:01:37.209Z,102071.50
2022-12-18T02:03:43.738Z,102066.38
2022-12-18T02:05:51.327Z,102055.66
2022-12-18T02:08:05.609Z,102050.72
2022-12-18T02:10:16.993Z,102057.38
2022-12-18T02:12:22.779Z,102064.09
2022-12-18T02:14:36.179Z,102071.59
2022-12-18T02:16:48.130Z,102068.03
2022-12-18T02:18:55.431Z,102072.16
2022-12-18T02:21:06.758Z,102075.22
2022-12-18T02:23:26.161Z,102078.31
2022-12-18T02:25:42.528Z,102070.97
2022-12-18T02:27:48.989Z,102075.59
2022-12-18T02:29:58.474Z,102073.63
2022-12-18T02:32:08.152Z,102066.03
2022-12-18T02:34:12.968Z,102075.16
2022-12-18T02:36:20.111Z,102069.75
2022-12-18T02:38:25.229Z,102055.22
2022-12-18T02:40:30.234Z,102058.38
2022-12-18T02:42:35.044Z,102060.72
2022-12-18T02:44:46.514Z,102058.53
2022-12-18T02:46:54.365Z,102063.56
2022-12-18T02:49:03.333Z,102050.63
2022-12-18T02:51:25.151Z,102039.91
2022-12-18T02:53:39.320Z,102032.25
2022-12-18T02:55:53.785Z,102019.41
2022-12-18T02:58:00.424Z,102026.72
2022-12-18T03:00:14.366Z,102050.94
2022-12-18T03:02:23.007Z,102057.44
2022-12-18T03:04:30.637Z,102057.28
2022-12-18T03:06:39.152Z,102062.28
2022-12-18T03:08:46.511Z,102061.06
2022-12-18T03:10:55.946Z,102066.22
2022-12-18T03:13:02.913Z,102063.50
2022-12-18T03:15:17.592Z,102057.38
2022-12-18T03:17:22.819Z,102046.78
2022-12-18T03:19:31.373Z,102035.69
2022-12-18T03:21:40.143Z,102022.22
2022-12-18T03:23:50.266Z,102012.94
2022-12-18T03:25:56.642Z,102011.09
2022-12-18T03:28:05.266Z,102051.81
2022-12-18T03:30:13.976Z,102060.91
2022-12-18T03:32:22.938Z,102062.34
2022-12-18T03:34:31.268Z,102053.44
2022-12-18T03:36:36.519Z,102054.13
2022-12-18T03:38:39.619Z,102051.63
2022-12-18T03:40:53.093Z,102054.56
2022-12-18T03:43:02.479Z,102056.22
2022-12-18T03:45:15.644Z,102043.09
2022-12-18T03:47:29.096Z,102045.63
2022-12-18T03:49:40.523Z,102050.13
2022-12-18T03:51:51.077Z,102050.19
2022-12-18T03:53:59.308Z,102053.81
2022-12-18T03:56:08.803Z,102053.25
2022-12-18T03:58:20.256Z,102054.91
2022-12-18T04:00:37.327Z,102057.31
2022-12-18T04:02:50.795Z,102053.59
2022-12-18T04:05:03.932Z,102051.66
2022-12-18T04:07:08.195Z,102052.91
2022-12-18T04:09:15.783Z,102054.69
2022-12-18T04:11:22.602Z,102055.75
2022-12-18T04:13:26.532Z,102053.97
2022-12-18T04:15:29.449Z,102047.41
2022-12-18T04:17:35.848Z,102048.41
2022-12-18T04:19:38.803Z,102039.69
2022-12-18T04:21:41.630Z,102047.16
2022-12-18T04:23:47.061Z,102041.94
2022-12-18T04:25:49.922Z,102031.47
2022-12-18T04:28:02.950Z,102031.38
2022-12-18T04:30:07.487Z,102030.28
2022-12-18T04:32:10.731Z,102031.47
2022-12-18T04:34:15.923Z,102029.66
2022-12-18T04:36:24.675Z,102026.72
2022-12-18T04:38:27.567Z,102036.13
2022-12-18T04:40:38.720Z,102037.13
2022-12-18T04:42:48.115Z,102039.53
2022-12-18T04:44:50.924Z,102041.03
2022-12-18T04:46:53.693Z,102035.69
2022-12-18T04:48:57.299Z,102035.06
2022-12-18T04:51:01.452Z,102037.06
2022-12-18T04:53:03.321Z,102044.03
2022-12-18T04:55:06.834Z,102045.31
2022-12-18T04:57:09.620Z,102040.94
2022-12-18T04:59:12.393Z,102045.91
2022-12-18T05:01:17.084Z,102049.84
2022-12-18T05:03:20.021Z,102046.69
2022-12-18T05:05:22.825Z,102059.34
2022-12-18T05:07:27.019Z,102062.94
2022-12-18T05:09:29.807Z,102066.53
2022-12-18T05:11:32.618Z,102064.19
2022-12-18T05:13:36.362Z,102057.44
2022-12-18T05:15:39.401Z,102054.59
2022-12-18T05:17:42.200Z,102052.28
2022-12-18T05:19:44.970Z,102059.25
2022-12-18T05:21:47.830Z,102056.59
2022-12-18T05:23:51.961Z,102072.47
2022-12-18T05:25:55.875Z,102070.28
2022-12-18T05:27:57.717Z,102074.94
2022-12-18T05:30:00.897Z,102075.13
2022-12-18T05:32:03.674Z,102066.69
2022-12-18T05:34:06.850Z,102060.78
2022-12-18T05:36:11.032Z,102064.47
2022-12-18T05:38:13.794Z,102058.16
2022-12-18T05:40:18.002Z,102048.03
2022-12-18T05:42:20.784Z,102053.38
2022-12-18T05:44:23.579Z,102056.25
2022-12-18T05:46:26.577Z,102053.56
2022-12-18T05:48:29.373Z,102060.66
2022-12-18T05:50:32.138Z,102052.19
2022-12-18T05:52:37.930Z,102059.97
2022-12-18T05:54:41.100Z,102065.19
2022-12-18T05:56:48.670Z,102049.69
2022-12-18T05:58:53.765Z,102049.59
2022-12-18T06:00:56.516Z,102052.78
2022-12-18T06:02:59.897Z,102056.59
2022-12-18T06:05:02.882Z,102051.75
2022-12-18T06:07:05.696Z,102060.69
2022-12-18T06:09:10.257Z,102062.66
2022-12-18T06:11:13.061Z,102065.53
2022-12-18T06:13:17.243Z,102074.94
2022-12-18T06:15:20.056Z,102070.03
2022-12-18T06:17:23.206Z,102071.59
2022-12-18T06:19:25.993Z,102072.63
2022-12-18T06:21:29.339Z,102069.22
2022-12-18T06:23:32.220Z,102072.72
2022-12-18T06:25:34.977Z,102076.25
2022-12-18T06:27:37.714Z,102076.41
2022-12-18T06:29:41.832Z,102085.88
2022-12-18T06:31:44.701Z,102081.72
2022-12-18T06:33:47.576Z,102084.16
2022-12-18T06:35:50.673Z,102079.78
2022-12-18T06:37:53.432Z,102082.72
2022-12-18T06:39:57.430Z,102084.94
2022-12-18T06:42:00.204Z,102081.84
2022-12-18T06:44:03.061Z,102093.44
2022-12-18T06:46:07.827Z,102085.09
2022-12-18T06:48:10.669Z,102094.63
2022-12-18T06:50:14.244Z,102100.88
2022-12-18T06:52:18.444Z,102091.97
2022-12-18T06:54:21.277Z,102090.50
2022-12-18T06:56:25.205Z,102097.06
2022-12-18T06:58:28.711Z,102099.75
2022-12-18T07:00:31.663Z,102106.66
2022-12-18T07:02:36.067Z,102105.75
2022-12-18T07:04:39.192Z,102114.41
2022-12-18T07:06:41.967Z,102112.78
2022-12-18T07:08:45.150Z,102113.56
2022-12-18T07:10:52.923Z,102116.19
2022-12-18T07:12:58.763Z,102108.72
2022-12-18T07:15:01.689Z,102111.94
2022-12-18T07:17:04.633Z,102109.66
2022-12-18T07:19:10.167Z,102119.72
2022-12-18T07:21:15.853Z,102120.69
2022-12-18T07:23:18.596Z,102118.06
2022-12-18T07:25:21.515Z,102122.81
2022-12-18T07:27:25.054Z,102129.69
2022-12-18T07:29:27.901Z,102124.94
2022-12-18T07:31:30.681Z,102120.94
2022-12-18T07:33:34.375Z,102124.47
2022-12-18T07:35:38.434Z,102129.69
2022-12-18T07:37:41.154Z,102128.22
2022-12-18T07:39:44.022Z,102129.13
2022-12-18T07:42:07.624Z,102135.97
2022-12-18T07:44:11.774Z,102133.84
2022-12-18T07:46:16.532Z,102130.09
2022-12-18T07:48:19.215Z,102129.84
2022-12-18T07:50:22.079Z,102127.00
2022-12-18T07:52:26.550Z,102131.41
2022-12-18T07:54:29.292Z,102132.25
2022-12-18T07:56:32.027Z,102136.22
2022-12-18T07:58:35.625Z,102140.97
2022-12-18T08:00:38.401Z,102136.28
2022-12-18T08:02:41.281Z,102142.91
2022-12-18T08:04:45.121Z,102143.03
2022-12-18T08:06:48.584Z,102136.47
2022-12-18T08:08:53.541Z,102136.75
2022-12-18T08:10:56.311Z,102138.53
2022-12-18T08:13:04.615Z,102142.47
2022-12-18T08:15:08.713Z,102148.41
2022-12-18T08:17:11.479Z,102143.00
2022-12-18T08:19:14.331Z,102143.16
2022-12-18T08:21:19.024Z,102142.59
2022-12-18T08:23:26.469Z,102147.91
2022-12-18T08:25:32.731Z,102147.44
2022-12-18T08:27:35.892Z,102152.19
2022-12-18T08:29:39.102Z,102157.25
2022-12-18T08:31:42.005Z,102159.78
2022-12-18T08:33:44.924Z,102150.44
2022-12-18T08:35:47.730Z,102142.13
2022-12-18T08:37:50.553Z,102131.91
2022-12-18T08:39:53.303Z,102124.47
2022-12-18T08:42:15.786Z,102123.72
2022-12-18T08:44:35.986Z,102122.81
2022-12-18T08:46:40.582Z,102123.06
2022-12-18T08:48:43.507Z,102128.38
2022-12-18T08:50:55.080Z,102121.19
2022-12-18T08:52:57.882Z,102115.38
2022-12-18T08:55:00.722Z,102106.81
2022-12-18T08:57:04.932Z,102110.69
2022-12-18T08:59:07.803Z,102094.34
2022-12-18T09:01:12.715Z,102088.59
2022-12-18T09:03:15.602Z,102099.19
2022-12-18T09:05:18.671Z,102095.41
2022-12-18T09:07:21.452Z,102089.03
2022-12-18T09:09:24.234Z,102085.16
2022-12-18T09:11:29.226Z,102091.78
2022-12-18T09:13:33.766Z,102101.06
2022-12-18T09:15:36.654Z,102099.16
2022-12-18T09:17:39.361Z,102099.31
2022-12-18T09:19:42.202Z,102096.09
2022-12-18T09:21:48.322Z,102099.59
2022-12-18T09:23:51.858Z,102099.75
2022-12-18T09:26:00.837Z,102103.59
2022-12-18T09:28:03.789Z,102105.41
2022-12-18T09:30:09.547Z,102099.00
2022-12-18T09:32:15.251Z,102105.88
2022-12-18T09:34:22.702Z,102104.47
2022-12-18T09:36:25.641Z,102115.50
2022-12-18T09:38:28.445Z,102126.22
2022-12-18T09:40:36.796Z,102127.44
2022-12-18T09:42:40.591Z,102128.53
2022-12-18T09:44:47.401Z,102127.28
2022-12-18T09:46:57.718Z,102136.25
2022-12-18T09:49:05.005Z,102139.66
2022-12-18T09:51:15.352Z,102144.38
2022-12-18T09:53:22.005Z,102147.59
2022-12-18T09:55:36.918Z,102148.47
2022-12-18T09:57:47.191Z,102154.06
2022-12-18T09:59:55.133Z,102158.88
2022-12-18T10:01:59.516Z,102146.47
2022-12-18T10:04:03.020Z,102145.78
2022-12-18T10:06:13.480Z,102135.81
2022-12-18T10:08:24.340Z,102136.13
2022-12-18T10:10:38.431Z,102123.44
2022-12-18T10:12:48.821Z,102130.47
2022-12-18T10:14:58.918Z,102114.91
2022-12-18T10:17:12.185Z,102121.81
2022-12-18T10:19:27.937Z,102129.16
2022-12-18T10:21:35.837Z,102129.28
2022-12-18T10:23:48.576Z,102133.94
2022-12-18T10:25:57.462Z,102135.25
2022-12-18T10:28:09.344Z,102136.34
2022-12-18T10:30:16.513Z,102134.34
2022-12-18T10:32:22.668Z,102121.81
2022-12-18T10:34:25.888Z,102118.28
2022-12-18T10:36:29.043Z,102107.22
2022-12-18T10:38:33.687Z,102100.97
2022-12-18T10:40:50.799Z,102089.91
2022-12-18T10:43:05.978Z,102086.91
2022-12-18T10:45:12.673Z,102084.97
2022-12-18T10:47:20.201Z,102090.78
2022-12-18T10:49:28.234Z,102088.56
2022-12-18T10:51:34.454Z,102089.75
2022-12-18T10:53:39.451Z,102092.59
2022-12-18T10:55:46.897Z,102098.28
2022-12-18T10:57:49.724Z,102090.22
2022-12-18T10:59:55.639Z,102091.41
2022-12-18T11:02:00.245Z,102084.63
2022-12-18T11:04:10.904Z,102091.78
2022-12-18T11:06:16.832Z,102095.81
2022-12-18T11:08:23.728Z,102096.97
2022-12-18T11:10:32.482Z,102095.94
2022-12-18T11:12:35.365Z,102104.13
2022-12-18T11:14:47.314Z,102100.72
2022-12-18T11:19:25.137Z,102080.13
2022-12-18T11:21:29.364Z,102089.75
2022-12-18T11:23:32.171Z,102093.81
2022-12-18T11:25:36.328Z,102092.84
2022-12-18T11:27:41.619Z,102098.34
2022-12-18T11:29:46.724Z,102091.97
2022-12-18T11:31:49.795Z,102085.16
2022-12-18T11:34:27.640Z,102087.66
2022-12-18T11:36:24.093Z,102085.44
2022-12-18T11:38:30.815Z,102088.44
2022-12-18T11:40:41.235Z,102081.25
2022-12-18T11:42:50.234Z,102086.38
2022-12-18T11:44:59.988Z,102076.63
2022-12-18T11:47:11.531Z,102071.34
2022-12-18T11:49:19.237Z,102071.88
2022-12-18T11:51:30.300Z,102068.72
2022-12-18T11:53:38.632Z,102067.09
2022-12-18T11:55:48.641Z,102067.25
2022-12-18T11:58:00.785Z,102075.69
2022-12-18T12:00:12.138Z,102065.72
2022-12-18T12:02:35.910Z,102070.00
2022-12-18T12:04:50.119Z,102070.59
2022-12-18T12:07:03.449Z,102060.22
2022-12-18T12:09:16.973Z,102061.50
2022-12-18T12:11:30.010Z,102068.13
2022-12-18T12:13:44.597Z,102062.22
2022-12-18T12:15:57.880Z,102055.00
2022-12-18T12:18:11.509Z,102038.91
2022-12-18T12:20:23.861Z,102026.28
2022-12-18T12:22:35.286Z,102029.72
2022-12-18T12:24:53.648Z,102040.72
2022-12-18T12:27:04.182Z,102040.59
2022-12-18T12:29:21.437Z,102050.31
2022-12-18T12:31:38.495Z,102046.88
2022-12-18T12:33:51.431Z,102042.94
2022-12-18T12:36:04.946Z,102042.59
2022-12-18T12:38:12.910Z,102045.28
2022-12-18T12:41:02.219Z,102040.72
2022-12-18T12:43:28.417Z,102035.63
2022-12-18T12:45:55.787Z,102025.28
2022-12-18T12:48:00.616Z,102032.31
2022-12-18T12:50:13.841Z,102028.91
2022-12-18T12:52:23.484Z,102027.75
2022-12-18T12:54:28.974Z,102022.06
2022-12-18T12:56:41.891Z,102018.53
2022-12-18T12:58:53.918Z,102018.66
2022-12-18T13:01:05.913Z,102014.06
2022-12-18T13:03:17.055Z,102009.34
2022-12-18T13:05:26.008Z,101994.44
2022-12-18T13:07:34.774Z,101989.56
2022-12-18T13:10:23.661Z,101988.28
2022-12-18T13:12:47.582Z,101988.69
2022-12-18T13:14:50.859Z,101983.09
2022-12-18T13:16:53.881Z,101972.03
2022-12-18T13:18:59.606Z,101985.94
2022-12-18T13:21:11.081Z,101984.41
2022-12-18T13:23:37.226Z,101977.53
2022-12-18T13:25:40.477Z,101979.88
2022-12-18T13:28:07.350Z,101981.81
2022-12-18T13:30:58.376Z,101980.81
2022-12-18T13:33:51.016Z,101977.16
2022-12-18T13:36:05.071Z,101968.78
2022-12-18T13:38:23.355Z,101972.53
2022-12-18T13:40:59.590Z,101980.88
2022-12-18T13:43:15.638Z,101973.06
2022-12-18T13:45:41.220Z,101966.38
2022-12-18T13:47:45.849Z,101960.94
2022-12-18T13:49:48.924Z,101963.09
2022-12-18T13:51:54.815Z,101964.47
2022-12-18T13:54:00.826Z,101957.47
2022-12-18T13:56:04.862Z,101972.25
2022-12-18T13:58:14.813Z,101977.34
2022-12-18T14:00:36.132Z,101971.84
2022-12-18T14:02:39.324Z,101969.56
2022-12-18T14:04:42.674Z,101966.56
2022-12-18T14:06:47.783Z,101967.75
2022-12-18T14:08:51.127Z,101970.03
2022-12-18T14:11:23.298Z,101972.72
2022-12-18T14:13:31.253Z,101966.47
2022-12-18T14:15:36.044Z,101956.78
2022-12-18T14:17:39.184Z,101956.94
2022-12-18T14:19:46.859Z,101952.34
2022-12-18T14:21:51.952Z,101947.78
2022-12-18T14:24:14.728Z,101949.97
2022-12-18T14:26:23.736Z,101949.03
2022-12-18T14:28:28.422Z,101952.97
2022-12-18T14:30:33.960Z,101954.13
2022-12-18T14:32:37.809Z,101950.44
2022-12-18T14:34:40.652Z,101952.22
2022-12-18T14:36:43.647Z,101968.78
2022-12-18T14:38:51.077Z,101964.06
2022-12-18T14:40:55.089Z,101969.28
2022-12-18T14:42:57.930Z,101971.22
2022-12-18T14:45:45.323Z,101968.59
2022-12-18T14:47:50.132Z,101969.16
2022-12-18T14:49:53.034Z,101969.28
2022-12-18T14:51:57.757Z,101972.63
2022-12-18T14:54:05.575Z,101966.63
2022-12-18T14:56:15.761Z,101960.75
2022-12-18T14:58:20.212Z,101954.66
2022-12-18T15:00:25.802Z,101947.13
2022-12-18T15:02:30.563Z,101943.41
2022-12-18T15:04:36.915Z,101938.16
2022-12-18T15:06:40.823Z,101939.44
2022-12-18T15:08:44.402Z,101947.84
2022-12-18T15:10:49.755Z,101943.13
2022-12-18T15:13:09.862Z,101943.28
2022-12-18T15:15:47.127Z,101945.69
2022-12-18T15:17:50.018Z,101946.97
2022-12-18T15:20:00.717Z,101934.34
2022-12-18T15:22:06.558Z,101937.38
2022-12-18T15:24:20.183Z,101942.00
2022-12-18T15:26:24.055Z,101932.53
2022-12-18T15:28:30.875Z,101933.56
2022-12-18T15:30:33.764Z,101937.03
2022-12-18T15:32:37.325Z,101946.31
2022-12-18T15:34:40.365Z,101923.78
2022-12-18T15:36:45.139Z,101938.91
2022-12-18T15:38:48.818Z,101937.03
2022-12-18T15:40:51.755Z,101936.88
2022-12-18T15:43:14.256Z,101941.84
2022-12-18T15:45:17.152Z,101933.28
2022-12-18T15:47:21.886Z,101942.59
2022-12-18T15:49:25.209Z,101934.06
2022-12-18T15:51:31.775Z,101935.09
2022-12-18T15:53:36.062Z,101939.56
2022-12-18T15:56:00.990Z,101940.19
2022-12-18T15:58:04.262Z,101946.66
2022-12-18T16:00:08.241Z,101945.03
2022-12-18T16:02:18.527Z,101947.56
2022-12-18T16:04:23.136Z,101946.53
2022-12-18T16:06:25.885Z,101948.63
2022-12-18T16:08:28.664Z,101938.94
2022-12-18T16:10:32.866Z,101944.75
2022-12-18T16:12:35.745Z,101942.69
2022-12-18T16:14:38.808Z,101949.78
2022-12-18T16:16:42.490Z,101945.97
2022-12-18T16:18:45.194Z,101950.31
2022-12-18T16:20:47.956Z,101945.25
2022-12-18T16:22:51.441Z,101933.50
2022-12-18T16:24:55.069Z,101937.13
2022-12-18T16:27:01.191Z,101935.09
2022-12-18T16:29:03.969Z,101930.97
2022-12-18T16:31:07.190Z,101941.38
2022-12-18T16:33:11.556Z,101933.72
2022-12-18T16:35:15.875Z,101915.75
2022-12-18T16:37:18.748Z,101921.25
2022-12-18T16:39:22.282Z,101913.13
2022-12-18T16:41:34.882Z,101914.81
2022-12-18T16:43:39.367Z,101914.88
2022-12-18T16:45:42.428Z,101911.28
2022-12-18T16:47:45.988Z,101913.69
2022-12-18T16:49:51.549Z,101910.06
2022-12-18T16:51:54.514Z,101910.47
2022-12-18T16:53:57.628Z,101912.38
2022-12-18T16:56:00.646Z,101905.97
2022-12-18T16:58:03.504Z,101901.16
2022-12-18T17:00:09.302Z,101902.88
2022-12-18T17:02:15.486Z,101904.91
2022-12-18T17:04:19.219Z,101904.63
2022-12-18T17:06:22.404Z,101904.81
2022-12-18T17:08:25.158Z,101912.59
2022-12-18T17:10:28.178Z,101904.22
2022-12-18T17:12:30.987Z,101888.28
2022-12-18T17:14:34.416Z,101892.03
2022-12-18T17:16:38.727Z,101887.81
2022-12-18T17:18:42.939Z,101892.78
2022-12-18T17:20:45.726Z,101894.72
2022-12-18T17:22:48.559Z,101903.22
2022-12-18T17:24:51.455Z,101905.03
2022-12-18T17:26:54.306Z,101902.75
2022-12-18T17:28:58.515Z,101899.59
2022-12-18T17:31:01.750Z,101899.72
2022-12-18T17:33:06.101Z,101901.66
2022-12-18T17:35:09.696Z,101900.66
2022-12-18T17:37:12.667Z,101901.28
2022-12-18T17:39:20.298Z,101900.53
2022-12-18T17:41:24.319Z,101898.00
2022-12-18T17:43:27.436Z,101890.34
2022-12-18T17:45:30.187Z,101886.78
2022-12-18T17:47:33.099Z,101887.41
2022-12-18T17:49:37.260Z,101885.25
2022-12-18T17:51:42.206Z,101888.84
2022-12-18T17:53:45.202Z,101887.25
2022-12-18T17:55:54.958Z,101885.59
2022-12-18T17:57:57.792Z,101880.78
2022-12-18T18:00:00.582Z,101878.66
2022-12-18T18:02:03.583Z,101871.28
2022-12-18T18:04:07.276Z,101877.00
2022-12-18T18:06:11.588Z,101876.03
2022-12-18T18:08:14.809Z,101881.13
2022-12-18T18:10:17.634Z,101881.13
2022-12-18T18:12:38.132Z,101873.19
2022-12-18T18:14:41.069Z,101863.91
2022-12-18T18:16:45.502Z,101866.09
2022-12-18T18:18:48.250Z,101870.94
2022-12-18T18:20:51.168Z,101872.44
2022-12-18T18:22:58.027Z,101867.22
2022-12-18T18:25:02.111Z,101879.81
2022-12-18T18:27:05.278Z,101871.63
2022-12-18T18:29:09.268Z,101877.22
2022-12-18T18:31:13.122Z,101877.97
2022-12-18T18:33:16.083Z,101879.97
2022-12-18T18:35:45.038Z,101880.72
2022-12-18T18:37:41.703Z,101877.41
2022-12-18T18:39:46.649Z,101880.38
2022-12-18T18:41:50.408Z,101877.63
2022-12-18T18:43:55.880Z,101881.06
2022-12-18T18:45:59.220Z,101871.91
2022-12-18T18:48:02.082Z,101877.25
2022-12-18T18:50:05.584Z,101872.16
2022-12-18T18:52:08.469Z,101866.09
2022-12-18T18:54:11.586Z,101866.38
2022-12-18T18:56:45.598Z,101858.09
2022-12-18T18:58:40.710Z,101843.44
2022-12-18T19:00:43.556Z,101853.63
2022-12-18T19:02:47.018Z,101855.56
2022-12-18T19:04:49.862Z,101854.03
2022-12-18T19:06:52.768Z,101849.19
2022-12-18T19:08:56.532Z,101843.47
2022-12-18T19:11:00.963Z,101832.03
2022-12-18T19:13:22.675Z,101844.13
2022-12-18T19:15:25.465Z,101845.38
2022-12-18T19:17:30.645Z,101847.25
2022-12-18T19:19:34.403Z,101848.31
2022-12-18T19:21:38.132Z,101832.41
2022-12-18T19:23:40.972Z,101833.53
2022-12-18T19:25:43.736Z,101827.03
2022-12-18T19:27:46.535Z,101834.84
2022-12-18T19:29:51.575Z,101824.78
2022-12-18T19:31:54.285Z,101817.50
2022-12-18T19:33:57.511Z,101823.88
2022-12-18T19:36:00.683Z,101832.81
2022-12-18T19:38:03.506Z,101822.13
2022-12-18T19:40:12.103Z,101819.59
2022-12-18T19:42:18.899Z,101817.16
2022-12-18T19:44:24.246Z,101815.50
2022-12-18T19:46:28.389Z,101819.19
2022-12-18T19:48:31.597Z,101815.00
2022-12-18T19:50:34.846Z,101808.50
2022-12-18T19:52:37.850Z,101801.09
2022-12-18T19:54:40.681Z,101806.84
2022-12-18T19:56:43.436Z,101807.88
2022-12-18T19:58:46.735Z,101793.44
2022-12-18T20:00:49.531Z,101791.81
2022-12-18T20:02:58.394Z,101789.53
2022-12-18T20:05:08.665Z,101786.97
2022-12-18T20:07:12.565Z,101789.78
2022-12-18T20:09:15.729Z,101788.25
2022-12-18T20:11:19.514Z,101789.91
2022-12-18T20:13:22.361Z,101795.63
2022-12-18T20:15:25.173Z,101793.22
2022-12-18T20:17:28.522Z,101803.41
2022-12-18T20:19:33.795Z,101804.44
2022-12-18T20:21:37.691Z,101797.69
2022-12-18T20:23:40.838Z,101792.97
2022-12-18T20:25:43.901Z,101808.13
2022-12-18T20:27:46.768Z,101801.28
2022-12-18T20:29:49.605Z,101794.88
2022-12-18T20:31:52.530Z,101790.53
2022-12-18T20:34:00.221Z,101773.72
2022-12-18T20:36:08.217Z,101785.44
2022-12-18T20:38:11.435Z,101783.03
2022-12-18T20:40:15.255Z,101793.22
2022-12-18T20:42:18.122Z,101795.00
2022-12-18T20:44:22.305Z,101786.75
2022-12-18T20:46:26.192Z,101782.16
2022-12-18T20:48:29.204Z,101778.22
2022-12-18T20:50:32.095Z,101785.19
2022-12-18T20:52:41.857Z,101784.94
2022-12-18T20:54:45.847Z,101775.50
2022-12-18T20:56:48.685Z,101775.50
2022-12-18T20:58:54.900Z,101781.63
2022-12-18T21:01:04.845Z,101774.13
2022-12-18T21:03:08.066Z,101761.84
2022-12-18T21:05:11.045Z,101792.59
2022-12-18T21:07:13.785Z,101789.91
2022-12-18T21:09:18.072Z,101779.59
2022-12-18T21:11:46.653Z,101779.84
2022-12-18T21:13:49.456Z,101769.63
2022-12-18T21:15:54.392Z,101794.38
2022-12-18T21:17:57.068Z,101794.13
2022-12-18T21:19:59.968Z,101782.50
2022-12-18T21:22:03.321Z,101791.34
2022-12-18T21:24:07.772Z,101783.94
2022-12-18T21:26:19.463Z,101789.66
2022-12-18T21:28:22.470Z,101807.41
2022-12-18T21:30:25.277Z,101800.00
2022-12-18T21:32:29.267Z,101790.78
2022-12-18T21:34:35.055Z,101765.03
2022-12-18T21:36:37.952Z,101764.41
2022-12-18T21:38:40.769Z,101778.97
2022-12-18T21:40:43.685Z,101769.13
2022-12-18T21:43:05.686Z,101771.56
2022-12-18T21:45:09.276Z,101784.19
2022-12-18T21:47:21.638Z,101770.94
2022-12-18T21:49:25.559Z,101764.28
2022-12-18T21:51:28.708Z,101759.19
2022-12-18T21:53:31.514Z,101778.47
2022-12-18T21:55:34.277Z,101786.22
2022-12-18T21:57:37.764Z,101801.41
2022-12-18T21:59:43.501Z,101807.53
2022-12-18T22:01:46.843Z,101818.88
2022-12-18T22:03:49.692Z,101809.69
2022-12-18T22:06:04.085Z,101801.28
2022-12-18T22:08:12.371Z,101798.75
2022-12-18T22:10:15.387Z,101795.28
2022-12-18T22:12:35.225Z,101804.84
2022-12-18T22:14:38.455Z,101798.75
2022-12-18T22:16:42.927Z,101797.06
2022-12-18T22:18:46.578Z,101795.16
2022-12-18T22:20:49.350Z,101796.69
2022-12-18T22:22:52.979Z,101783.94
2022-12-18T22:24:55.784Z,101781.63
2022-12-18T22:27:01.815Z,101787.00
2022-12-18T22:29:23.046Z,101776.28
2022-12-18T22:31:25.876Z,101786.22
2022-12-18T22:33:30.174Z,101785.97
2022-12-18T22:35:32.963Z,101781.63
2022-12-18T22:37:35.791Z,101790.84
2022-12-18T22:39:40.143Z,101792.09
2022-12-18T22:41:43.629Z,101795.41
2022-12-18T22:43:46.371Z,101794.91
2022-12-18T22:45:49.130Z,101794.41
2022-12-18T22:47:52.324Z,101792.59
2022-12-18T22:49:56.435Z,101795.91
2022-12-18T22:51:59.133Z,101798.31
2022-12-18T22:54:01.899Z,101802.81
2022-12-18T22:56:05.247Z,101800.13
2022-12-18T22:58:08.001Z,101796.56
2022-12-18T23:00:12.073Z,101797.06
2022-12-18T23:02:14.974Z,101801.66
2022-12-18T23:04:18.452Z,101792.47
2022-12-18T23:06:24.693Z,101795.25
2022-12-18T23:08:27.613Z,101790.03
2022-12-18T23:10:32.629Z,101787.09
2022-12-18T23:12:37.435Z,101795.78
2022-12-18T23:14:41.056Z,101785.81
2022-12-18T23:16:44.002Z,101791.22
2022-12-18T23:18:53.745Z,101784.31
2022-12-18T23:20:56.509Z,101778.34
2022-12-18T23:23:02.109Z,101784.06
2022-12-18T23:25:05.448Z,101771.19
2022-12-18T23:27:11.724Z,101776.03
2022-12-18T23:29:14.989Z,101776.03
2022-12-18T23:31:19.434Z,101774.25
2022-12-18T23:33:22.286Z,101770.81
2022-12-18T23:35:25.356Z,101769.88
2022-12-18T23:37:56.943Z,101760.06
2022-12-18T23:39:52.198Z,101759.94
2022-12-18T23:41:54.917Z,101766.22
2022-12-18T23:43:58.376Z,101757.63
2022-12-18T23:46:01.191Z,101760.47
2022-12-18T23:48:04.017Z,101760.59
2022-12-18T23:50:08.027Z,101751.53
2022-12-18T23:52:10.792Z,101747.31
2022-12-18T23:54:13.572Z,101746.69
2022-12-18T23:56:17.757Z,101745.81
2022-12-18T23:58:22.222Z,101744.38
